sensor_id;sensor_type;location;lat;lon;timestamp;temperature;humidity
76239;SHT30;65043;48.392;-4.472;2023-04-01T00:00:18;13.09;73.15
76239;SHT30;65043;48.392;-4.472;2023-04-01T00:02:43;13.06;73.21
76239;SHT30;65043;48.392;-4.472;2023-04-01T00:05:10;13.05;73.17
76239;SHT30;65043;48.392;-4.472;2023-04-01T00:07:36;13.05;73.32
76239;SHT30;65043;48.392;-4.472;2023-04-01T00:10:03;13.05;73.49
76239;SHT30;65043;48.392;-4.472;2023-04-01T00:12:28;13.05;73.51
76239;SHT30;65043;48.392;-4.472;2023-04-01T00:14:54;13.05;73.72
76239;SHT30;65043;48.392;-4.472;2023-04-01T00:17:20;13.05;73.57
76239;SHT30;65043;48.392;-4.472;2023-04-01T00:19:45;13.06;73.76
76239;SHT30;65043;48.392;-4.472;2023-04-01T00:22:11;13.08;73.49
76239;SHT30;65043;48.392;-4.472;2023-04-01T00:24:37;13.13;73.11
76239;SHT30;65043;48.392;-4.472;2023-04-01T00:27:03;13.11;73.10
76239;SHT30;65043;48.392;-4.472;2023-04-01T00:29:29;13.11;73.17
76239;SHT30;65043;48.392;-4.472;2023-04-01T00:31:56;13.12;73.07
76239;SHT30;65043;48.392;-4.472;2023-04-01T00:34:22;13.11;73.21
76239;SHT30;65043;48.392;-4.472;2023-04-01T00:36:48;13.11;72.87
76239;SHT30;65043;48.392;-4.472;2023-04-01T00:39:13;13.09;73.34
76239;SHT30;65043;48.392;-4.472;2023-04-01T00:41:38;13.11;73.70
76239;SHT30;65043;48.392;-4.472;2023-04-01T00:44:24;13.11;73.84
76239;SHT30;65043;48.392;-4.472;2023-04-01T00:46:50;13.09;73.66
76239;SHT30;65043;48.392;-4.472;2023-04-01T00:49:19;13.05;74.01
76239;SHT30;65043;48.392;-4.472;2023-04-01T00:51:48;13.03;74.16
76239;SHT30;65043;48.392;-4.472;2023-04-01T00:54:16;12.98;74.37
76239;SHT30;65043;48.392;-4.472;2023-04-01T00:57:20;12.95;74.41
76239;SHT30;65043;48.392;-4.472;2023-04-01T00:59:50;12.96;74.18
76239;SHT30;65043;48.392;-4.472;2023-04-01T01:02:17;12.91;73.96
76239;SHT30;65043;48.392;-4.472;2023-04-01T01:04:43;12.92;73.86
76239;SHT30;65043;48.392;-4.472;2023-04-01T01:12:40;12.91;73.34
76239;SHT30;65043;48.392;-4.472;2023-04-01T01:15:36;12.85;73.20
76239;SHT30;65043;48.392;-4.472;2023-04-01T01:18:12;12.87;73.33
76239;SHT30;65043;48.392;-4.472;2023-04-01T01:32:16;12.88;73.06
76239;SHT30;65043;48.392;-4.472;2023-04-01T01:37:26;12.89;72.73
76239;SHT30;65043;48.392;-4.472;2023-04-01T01:40:04;12.85;72.91
76239;SHT30;65043;48.392;-4.472;2023-04-01T01:42:31;12.88;73.01
76239;SHT30;65043;48.392;-4.472;2023-04-01T01:45:00;12.87;73.10
76239;SHT30;65043;48.392;-4.472;2023-04-01T01:47:28;12.87;73.03
76239;SHT30;65043;48.392;-4.472;2023-04-01T01:49:55;12.87;73.03
76239;SHT30;65043;48.392;-4.472;2023-04-01T01:52:23;12.88;73.08
76239;SHT30;65043;48.392;-4.472;2023-04-01T01:54:54;12.91;73.13
76239;SHT30;65043;48.392;-4.472;2023-04-01T01:57:28;12.89;72.95
76239;SHT30;65043;48.392;-4.472;2023-04-01T01:59:58;12.85;73.01
76239;SHT30;65043;48.392;-4.472;2023-04-01T02:02:25;12.88;73.06
76239;SHT30;65043;48.392;-4.472;2023-04-01T02:04:52;12.89;73.05
76239;SHT30;65043;48.392;-4.472;2023-04-01T02:07:29;12.85;73.27
76239;SHT30;65043;48.392;-4.472;2023-04-01T02:09:56;12.91;73.30
76239;SHT30;65043;48.392;-4.472;2023-04-01T02:12:22;12.91;73.27
76239;SHT30;65043;48.392;-4.472;2023-04-01T02:17:24;12.91;73.29
76239;SHT30;65043;48.392;-4.472;2023-04-01T02:19:58;12.89;73.23
76239;SHT30;65043;48.392;-4.472;2023-04-01T02:22:28;12.88;73.44
76239;SHT30;65043;48.392;-4.472;2023-04-01T02:24:59;12.85;73.21
76239;SHT30;65043;48.392;-4.472;2023-04-01T02:27:26;12.88;73.43
76239;SHT30;65043;48.392;-4.472;2023-04-01T02:29:52;12.85;73.47
76239;SHT30;65043;48.392;-4.472;2023-04-01T02:32:19;12.87;73.58
76239;SHT30;65043;48.392;-4.472;2023-04-01T02:34:46;12.84;73.35
76239;SHT30;65043;48.392;-4.472;2023-04-01T02:37:13;12.81;73.18
76239;SHT30;65043;48.392;-4.472;2023-04-01T02:39:39;12.78;72.90
76239;SHT30;65043;48.392;-4.472;2023-04-01T02:42:05;12.81;72.74
76239;SHT30;65043;48.392;-4.472;2023-04-01T02:44:31;12.78;72.60
76239;SHT30;65043;48.392;-4.472;2023-04-01T02:46:56;12.77;72.66
76239;SHT30;65043;48.392;-4.472;2023-04-01T02:49:22;12.74;72.95
76239;SHT30;65043;48.392;-4.472;2023-04-01T02:51:47;12.72;73.01
76239;SHT30;65043;48.392;-4.472;2023-04-01T02:54:13;12.74;72.97
76239;SHT30;65043;48.392;-4.472;2023-04-01T02:56:38;12.68;72.69
76239;SHT30;65043;48.392;-4.472;2023-04-01T02:59:04;12.68;73.16
76239;SHT30;65043;48.392;-4.472;2023-04-01T03:01:29;12.68;72.91
76239;SHT30;65043;48.392;-4.472;2023-04-01T03:03:55;12.68;72.78
76239;SHT30;65043;48.392;-4.472;2023-04-01T03:06:20;12.71;72.82
76239;SHT30;65043;48.392;-4.472;2023-04-01T03:08:46;12.71;72.90
76239;SHT30;65043;48.392;-4.472;2023-04-01T03:11:12;12.68;72.81
76239;SHT30;65043;48.392;-4.472;2023-04-01T03:13:38;12.69;72.54
76239;SHT30;65043;48.392;-4.472;2023-04-01T03:16:03;12.71;72.20
76239;SHT30;65043;48.392;-4.472;2023-04-01T03:18:29;12.68;72.22
76239;SHT30;65043;48.392;-4.472;2023-04-01T03:20:54;12.67;72.30
76239;SHT30;65043;48.392;-4.472;2023-04-01T03:23:20;12.67;72.24
76239;SHT30;65043;48.392;-4.472;2023-04-01T03:25:46;12.68;72.10
76239;SHT30;65043;48.392;-4.472;2023-04-01T03:28:12;12.68;72.29
76239;SHT30;65043;48.392;-4.472;2023-04-01T03:30:38;12.69;72.41
76239;SHT30;65043;48.392;-4.472;2023-04-01T03:33:04;12.68;72.27
76239;SHT30;65043;48.392;-4.472;2023-04-01T03:35:30;12.68;72.51
76239;SHT30;65043;48.392;-4.472;2023-04-01T03:37:56;12.69;72.49
76239;SHT30;65043;48.392;-4.472;2023-04-01T03:40:22;12.72;72.37
76239;SHT30;65043;48.392;-4.472;2023-04-01T03:42:47;12.68;72.16
76239;SHT30;65043;48.392;-4.472;2023-04-01T03:45:13;12.69;72.36
76239;SHT30;65043;48.392;-4.472;2023-04-01T03:47:39;12.69;72.42
76239;SHT30;65043;48.392;-4.472;2023-04-01T03:50:06;12.68;72.03
76239;SHT30;65043;48.392;-4.472;2023-04-01T03:52:31;12.68;72.00
76239;SHT30;65043;48.392;-4.472;2023-04-01T03:54:57;12.67;72.27
76239;SHT30;65043;48.392;-4.472;2023-04-01T03:57:22;12.67;72.05
76239;SHT30;65043;48.392;-4.472;2023-04-01T03:59:48;12.65;71.68
76239;SHT30;65043;48.392;-4.472;2023-04-01T04:02:13;12.64;72.02
76239;SHT30;65043;48.392;-4.472;2023-04-01T04:04:39;12.67;72.14
76239;SHT30;65043;48.392;-4.472;2023-04-01T04:07:05;12.65;71.97
76239;SHT30;65043;48.392;-4.472;2023-04-01T04:09:31;12.67;71.68
76239;SHT30;65043;48.392;-4.472;2023-04-01T04:11:56;12.68;71.81
76239;SHT30;65043;48.392;-4.472;2023-04-01T04:14:23;12.64;71.87
76239;SHT30;65043;48.392;-4.472;2023-04-01T04:16:48;12.64;71.57
76239;SHT30;65043;48.392;-4.472;2023-04-01T04:19:14;12.67;71.81
76239;SHT30;65043;48.392;-4.472;2023-04-01T04:21:40;12.67;72.04
76239;SHT30;65043;48.392;-4.472;2023-04-01T04:24:06;12.65;72.00
76239;SHT30;65043;48.392;-4.472;2023-04-01T04:26:32;12.69;71.86
76239;SHT30;65043;48.392;-4.472;2023-04-01T04:28:57;12.67;71.90
76239;SHT30;65043;48.392;-4.472;2023-04-01T04:31:24;12.64;71.91
76239;SHT30;65043;48.392;-4.472;2023-04-01T04:33:51;12.65;72.32
76239;SHT30;65043;48.392;-4.472;2023-04-01T04:36:17;12.64;72.42
76239;SHT30;65043;48.392;-4.472;2023-04-01T04:38:43;12.62;72.54
76239;SHT30;65043;48.392;-4.472;2023-04-01T04:41:10;12.65;72.57
76239;SHT30;65043;48.392;-4.472;2023-04-01T04:43:35;12.64;72.65
76239;SHT30;65043;48.392;-4.472;2023-04-01T04:46:06;12.65;72.65
76239;SHT30;65043;48.392;-4.472;2023-04-01T04:48:31;12.64;72.75
76239;SHT30;65043;48.392;-4.472;2023-04-01T04:50:57;12.60;72.74
76239;SHT30;65043;48.392;-4.472;2023-04-01T04:53:22;12.57;72.64
76239;SHT30;65043;48.392;-4.472;2023-04-01T04:55:49;12.57;72.79
76239;SHT30;65043;48.392;-4.472;2023-04-01T04:58:16;12.57;72.79
76239;SHT30;65043;48.392;-4.472;2023-04-01T05:00:42;12.57;72.71
76239;SHT30;65043;48.392;-4.472;2023-04-01T05:03:08;12.54;72.46
76239;SHT30;65043;48.392;-4.472;2023-04-01T05:05:34;12.53;72.27
76239;SHT30;65043;48.392;-4.472;2023-04-01T05:07:59;12.48;72.43
76239;SHT30;65043;48.392;-4.472;2023-04-01T05:10:25;12.53;72.47
76239;SHT30;65043;48.392;-4.472;2023-04-01T05:12:50;12.48;72.57
76239;SHT30;65043;48.392;-4.472;2023-04-01T05:15:16;12.45;72.81
76239;SHT30;65043;48.392;-4.472;2023-04-01T05:17:41;12.47;72.86
76239;SHT30;65043;48.392;-4.472;2023-04-01T05:20:07;12.44;72.99
76239;SHT30;65043;48.392;-4.472;2023-04-01T05:22:32;12.48;73.01
76239;SHT30;65043;48.392;-4.472;2023-04-01T05:24:59;12.48;72.98
76239;SHT30;65043;48.392;-4.472;2023-04-01T05:27:24;12.43;73.02
76239;SHT30;65043;48.392;-4.472;2023-04-01T05:29:49;12.44;73.13
76239;SHT30;65043;48.392;-4.472;2023-04-01T05:32:15;12.45;73.26
76239;SHT30;65043;48.392;-4.472;2023-04-01T05:34:40;12.47;73.06
76239;SHT30;65043;48.392;-4.472;2023-04-01T05:37:06;12.50;73.09
76239;SHT30;65043;48.392;-4.472;2023-04-01T05:39:36;12.45;73.24
76239;SHT30;65043;48.392;-4.472;2023-04-01T05:42:03;12.45;73.13
76239;SHT30;65043;48.392;-4.472;2023-04-01T05:44:30;12.48;73.06
76239;SHT30;65043;48.392;-4.472;2023-04-01T05:46:55;12.43;73.19
76239;SHT30;65043;48.392;-4.472;2023-04-01T05:49:21;12.43;72.93
76239;SHT30;65043;48.392;-4.472;2023-04-01T05:51:46;12.40;72.92
76239;SHT30;65043;48.392;-4.472;2023-04-01T05:54:12;12.38;72.90
76239;SHT30;65043;48.392;-4.472;2023-04-01T05:56:37;12.38;72.93
76239;SHT30;65043;48.392;-4.472;2023-04-01T05:59:03;12.38;72.56
76239;SHT30;65043;48.392;-4.472;2023-04-01T06:01:28;12.37;72.51
76239;SHT30;65043;48.392;-4.472;2023-04-01T06:03:53;12.34;72.52
76239;SHT30;65043;48.392;-4.472;2023-04-01T06:06:29;12.30;72.75
76239;SHT30;65043;48.392;-4.472;2023-04-01T06:09:19;12.30;72.72
76239;SHT30;65043;48.392;-4.472;2023-04-01T06:14:57;12.26;72.82
76239;SHT30;65043;48.392;-4.472;2023-04-01T06:23:13;12.29;73.39
76239;SHT30;65043;48.392;-4.472;2023-04-01T06:31:32;12.30;73.77
76239;SHT30;65043;48.392;-4.472;2023-04-01T06:36:43;12.30;73.32
76239;SHT30;65043;48.392;-4.472;2023-04-01T06:39:47;12.30;73.37
76239;SHT30;65043;48.392;-4.472;2023-04-01T06:48:02;12.31;73.03
76239;SHT30;65043;48.392;-4.472;2023-04-01T06:56:08;12.34;73.06
76239;SHT30;65043;48.392;-4.472;2023-04-01T06:59:17;12.36;73.18
76239;SHT30;65043;48.392;-4.472;2023-04-01T07:01:53;12.37;73.24
76239;SHT30;65043;48.392;-4.472;2023-04-01T07:04:28;12.36;73.51
76239;SHT30;65043;48.392;-4.472;2023-04-01T07:07:14;12.38;73.26
76239;SHT30;65043;48.392;-4.472;2023-04-01T07:09:45;12.41;73.35
76239;SHT30;65043;48.392;-4.472;2023-04-01T07:14:57;12.44;73.20
76239;SHT30;65043;48.392;-4.472;2023-04-01T07:17:33;12.44;73.18
76239;SHT30;65043;48.392;-4.472;2023-04-01T07:20:05;12.44;73.27
76239;SHT30;65043;48.392;-4.472;2023-04-01T07:22:40;12.45;73.17
76239;SHT30;65043;48.392;-4.472;2023-04-01T07:25:15;12.47;73.24
76239;SHT30;65043;48.392;-4.472;2023-04-01T07:27:42;12.47;73.22
76239;SHT30;65043;48.392;-4.472;2023-04-01T07:30:14;12.48;72.78
76239;SHT30;65043;48.392;-4.472;2023-04-01T07:32:46;12.48;72.74
76239;SHT30;65043;48.392;-4.472;2023-04-01T07:35:23;12.53;72.35
76239;SHT30;65043;48.392;-4.472;2023-04-01T07:46:04;12.54;71.07
76239;SHT30;65043;48.392;-4.472;2023-04-01T07:53:49;12.50;70.09
76239;SHT30;65043;48.392;-4.472;2023-04-01T07:56:27;12.50;70.42
76239;SHT30;65043;48.392;-4.472;2023-04-01T08:15:27;12.65;71.04
76239;SHT30;65043;48.392;-4.472;2023-04-01T08:20:39;12.69;69.80
76239;SHT30;65043;48.392;-4.472;2023-04-01T08:23:16;12.69;69.16
76239;SHT30;65043;48.392;-4.472;2023-04-01T08:25:49;12.77;68.62
76239;SHT30;65043;48.392;-4.472;2023-04-01T08:28:37;12.75;69.26
76239;SHT30;65043;48.392;-4.472;2023-04-01T08:31:10;12.84;68.84
76239;SHT30;65043;48.392;-4.472;2023-04-01T08:33:39;12.89;68.67
76239;SHT30;65043;48.392;-4.472;2023-04-01T08:36:16;12.92;69.03
76239;SHT30;65043;48.392;-4.472;2023-04-01T08:44:19;12.99;67.21
76239;SHT30;65043;48.392;-4.472;2023-04-01T09:00:55;13.36;65.55
76239;SHT30;65043;48.392;-4.472;2023-04-01T09:25:32;13.35;65.45
76239;SHT30;65043;48.392;-4.472;2023-04-01T09:33:21;13.06;67.75
76239;SHT30;65043;48.392;-4.472;2023-04-01T09:36:11;12.93;68.41
76239;SHT30;65043;48.392;-4.472;2023-04-01T09:46:15;12.72;69.45
76239;SHT30;65043;48.392;-4.472;2023-04-01T09:51:48;12.80;69.36
76239;SHT30;65043;48.392;-4.472;2023-04-01T10:11:33;13.23;69.64
76239;SHT30;65043;48.392;-4.472;2023-04-01T10:33:36;13.67;66.30
76239;SHT30;65043;48.392;-4.472;2023-04-01T11:06:47;14.21;62.66
76239;SHT30;65043;48.392;-4.472;2023-04-01T11:09:37;14.22;63.58
76239;SHT30;65043;48.392;-4.472;2023-04-01T11:26:13;14.60;62.46
76239;SHT30;65043;48.392;-4.472;2023-04-01T11:34:46;14.65;60.83
76239;SHT30;65043;48.392;-4.472;2023-04-01T11:42:42;14.60;61.77
76239;SHT30;65043;48.392;-4.472;2023-04-01T11:53:36;14.62;63.00
76239;SHT30;65043;48.392;-4.472;2023-04-01T12:01:59;14.43;63.27
76239;SHT30;65043;48.392;-4.472;2023-04-01T12:04:48;14.48;64.62
76239;SHT30;65043;48.392;-4.472;2023-04-01T12:07:32;14.53;64.92
76239;SHT30;65043;48.392;-4.472;2023-04-01T12:10:24;14.43;65.05
76239;SHT30;65043;48.392;-4.472;2023-04-01T12:18:42;14.43;65.20
76239;SHT30;65043;48.392;-4.472;2023-04-01T12:31:27;14.50;64.70
76239;SHT30;65043;48.392;-4.472;2023-04-01T12:41:59;14.65;61.78
76239;SHT30;65043;48.392;-4.472;2023-04-01T12:55:59;14.81;62.24
76239;SHT30;65043;48.392;-4.472;2023-04-01T12:58:47;14.86;61.46
76239;SHT30;65043;48.392;-4.472;2023-04-01T13:01:45;14.87;60.97
76239;SHT30;65043;48.392;-4.472;2023-04-01T13:08:31;14.87;61.28
76239;SHT30;65043;48.392;-4.472;2023-04-01T13:10:41;14.79;61.96
76239;SHT30;65043;48.392;-4.472;2023-04-01T13:15:58;14.77;61.94
76239;SHT30;65043;48.392;-4.472;2023-04-01T13:18:46;14.80;61.77
76239;SHT30;65043;48.392;-4.472;2023-04-01T13:27:05;14.79;62.21
76239;SHT30;65043;48.392;-4.472;2023-04-01T13:35:26;14.90;62.03
76239;SHT30;65043;48.392;-4.472;2023-04-01T13:38:32;15.01;61.69
76239;SHT30;65043;48.392;-4.472;2023-04-01T13:44:02;15.11;62.00
76239;SHT30;65043;48.392;-4.472;2023-04-01T14:00:27;15.41;60.41
76239;SHT30;65043;48.392;-4.472;2023-04-01T14:32:51;16.13;62.24
76239;SHT30;65043;48.392;-4.472;2023-04-01T14:35:56;16.13;62.94
76239;SHT30;65043;48.392;-4.472;2023-04-01T14:48:56;15.82;62.54
76239;SHT30;65043;48.392;-4.472;2023-04-01T14:56:44;16.08;61.44
76239;SHT30;65043;48.392;-4.472;2023-04-01T15:02:18;15.79;61.92
76239;SHT30;65043;48.392;-4.472;2023-04-01T15:19:01;15.92;61.15
76239;SHT30;65043;48.392;-4.472;2023-04-01T15:24:26;15.78;61.75
76239;SHT30;65043;48.392;-4.472;2023-04-01T15:35:24;15.83;62.34
76239;SHT30;65043;48.392;-4.472;2023-04-01T15:38:36;15.81;64.56
76239;SHT30;65043;48.392;-4.472;2023-04-01T15:40:49;15.90;66.28
76239;SHT30;65043;48.392;-4.472;2023-04-01T15:48:44;16.09;65.74
76239;SHT30;65043;48.392;-4.472;2023-04-01T15:51:19;16.02;64.60
76239;SHT30;65043;48.392;-4.472;2023-04-01T16:01:59;16.13;63.24
76239;SHT30;65043;48.392;-4.472;2023-04-01T16:18:22;15.88;62.30
76239;SHT30;65043;48.392;-4.472;2023-04-01T16:21:06;15.65;63.32
76239;SHT30;65043;48.392;-4.472;2023-04-01T16:23:59;15.66;63.86
76239;SHT30;65043;48.392;-4.472;2023-04-01T16:26:27;15.79;63.56
76239;SHT30;65043;48.392;-4.472;2023-04-01T16:29:11;15.83;63.43
76239;SHT30;65043;48.392;-4.472;2023-04-01T16:34:39;15.63;64.26
76239;SHT30;65043;48.392;-4.472;2023-04-01T16:37:11;15.49;65.16
76239;SHT30;65043;48.392;-4.472;2023-04-01T16:40:01;15.35;65.92
76239;SHT30;65043;48.392;-4.472;2023-04-01T16:43:28;15.21;66.03
76239;SHT30;65043;48.392;-4.472;2023-04-01T16:48:09;15.17;66.11
76239;SHT30;65043;48.392;-4.472;2023-04-01T16:51:00;15.14;65.65
76239;SHT30;65043;48.392;-4.472;2023-04-01T16:53:45;15.12;65.18
76239;SHT30;65043;48.392;-4.472;2023-04-01T16:56:49;15.10;65.15
76239;SHT30;65043;48.392;-4.472;2023-04-01T17:02:01;14.86;65.92
76239;SHT30;65043;48.392;-4.472;2023-04-01T17:12:33;14.49;68.24
76239;SHT30;65043;48.392;-4.472;2023-04-01T17:23:10;14.41;68.36
76239;SHT30;65043;48.392;-4.472;2023-04-01T17:39:24;14.18;68.96
76239;SHT30;65043;48.392;-4.472;2023-04-01T17:42:06;14.14;68.89
76239;SHT30;65043;48.392;-4.472;2023-04-01T17:50:21;14.10;69.59
76239;SHT30;65043;48.392;-4.472;2023-04-01T17:52:55;14.12;69.55
76239;SHT30;65043;48.392;-4.472;2023-04-01T17:55:46;14.11;69.09
76239;SHT30;65043;48.392;-4.472;2023-04-01T17:58:29;14.10;69.53
76239;SHT30;65043;48.392;-4.472;2023-04-01T18:06:21;13.92;71.19
76239;SHT30;65043;48.392;-4.472;2023-04-01T18:09:00;13.87;71.67
76239;SHT30;65043;48.392;-4.472;2023-04-01T18:26:02;13.57;72.97
76239;SHT30;65043;48.392;-4.472;2023-04-01T18:28:38;13.52;73.16
76239;SHT30;65043;48.392;-4.472;2023-04-01T18:31:13;13.49;73.37
76239;SHT30;65043;48.392;-4.472;2023-04-01T18:34:08;13.44;73.67
76239;SHT30;65043;48.392;-4.472;2023-04-01T18:36:49;13.42;74.07
76239;SHT30;65043;48.392;-4.472;2023-04-01T18:39:23;13.42;73.79
76239;SHT30;65043;48.392;-4.472;2023-04-01T18:50:29;13.39;73.82
76239;SHT30;65043;48.392;-4.472;2023-04-01T18:53:14;13.39;74.26
76239;SHT30;65043;48.392;-4.472;2023-04-01T18:55:55;13.39;73.78
76239;SHT30;65043;48.392;-4.472;2023-04-01T18:58:42;13.40;73.80
76239;SHT30;65043;48.392;-4.472;2023-04-01T19:06:27;13.39;74.00
76239;SHT30;65043;48.392;-4.472;2023-04-01T19:08:54;13.38;74.09
76239;SHT30;65043;48.392;-4.472;2023-04-01T19:27:34;13.43;74.05
76239;SHT30;65043;48.392;-4.472;2023-04-01T19:30:18;13.42;73.84
76239;SHT30;65043;48.392;-4.472;2023-04-01T19:46:18;13.40;73.92
76239;SHT30;65043;48.392;-4.472;2023-04-01T19:56:44;13.35;73.77
76239;SHT30;65043;48.392;-4.472;2023-04-01T20:02:24;13.36;73.96
76239;SHT30;65043;48.392;-4.472;2023-04-01T20:04:54;13.39;73.88
76239;SHT30;65043;48.392;-4.472;2023-04-01T20:07:26;13.38;73.62
76239;SHT30;65043;48.392;-4.472;2023-04-01T20:10:13;13.32;73.76
76239;SHT30;65043;48.392;-4.472;2023-04-01T20:12:47;13.38;73.88
76239;SHT30;65043;48.392;-4.472;2023-04-01T20:17:57;13.40;73.78
76239;SHT30;65043;48.392;-4.472;2023-04-01T20:20:28;13.39;73.50
76239;SHT30;65043;48.392;-4.472;2023-04-01T20:26:10;13.40;73.29
76239;SHT30;65043;48.392;-4.472;2023-04-01T20:31:24;13.38;73.72
76239;SHT30;65043;48.392;-4.472;2023-04-01T20:49:50;13.39;73.11
76239;SHT30;65043;48.392;-4.472;2023-04-01T20:52:25;13.35;73.44
76239;SHT30;65043;48.392;-4.472;2023-04-01T21:00:54;13.38;73.29
76239;SHT30;65043;48.392;-4.472;2023-04-01T21:06:10;13.40;73.44
76239;SHT30;65043;48.392;-4.472;2023-04-01T21:09:39;13.38;73.14
76239;SHT30;65043;48.392;-4.472;2023-04-01T21:11:56;13.39;73.13
76239;SHT30;65043;48.392;-4.472;2023-04-01T21:25:30;13.40;72.74
76239;SHT30;65043;48.392;-4.472;2023-04-01T21:31:08;13.33;72.59
76239;SHT30;65043;48.392;-4.472;2023-04-01T21:33:52;13.36;72.36
76239;SHT30;65043;48.392;-4.472;2023-04-01T21:53:24;13.38;72.73
76239;SHT30;65043;48.392;-4.472;2023-04-01T22:06:41;13.38;72.90
76239;SHT30;65043;48.392;-4.472;2023-04-01T22:17:46;13.35;72.98
76239;SHT30;65043;48.392;-4.472;2023-04-01T22:30:51;13.40;72.71
76239;SHT30;65043;48.392;-4.472;2023-04-01T22:33:34;13.35;72.54
76239;SHT30;65043;48.392;-4.472;2023-04-01T22:43:55;13.33;72.49
76239;SHT30;65043;48.392;-4.472;2023-04-01T22:46:46;13.33;72.49
76239;SHT30;65043;48.392;-4.472;2023-04-01T22:49:26;13.35;72.43
76239;SHT30;65043;48.392;-4.472;2023-04-01T22:52:43;13.33;72.49
76239;SHT30;65043;48.392;-4.472;2023-04-01T22:54:46;13.33;72.37
76239;SHT30;65043;48.392;-4.472;2023-04-01T22:57:46;13.35;72.37
76239;SHT30;65043;48.392;-4.472;2023-04-01T23:03:29;13.29;72.56
76239;SHT30;65043;48.392;-4.472;2023-04-01T23:05:58;13.30;72.46
76239;SHT30;65043;48.392;-4.472;2023-04-01T23:11:22;13.29;72.71
76239;SHT30;65043;48.392;-4.472;2023-04-01T23:19:36;13.24;72.50
76239;SHT30;65043;48.392;-4.472;2023-04-01T23:27:31;13.22;72.65
76239;SHT30;65043;48.392;-4.472;2023-04-01T23:30:00;13.20;72.71
76239;SHT30;65043;48.392;-4.472;2023-04-01T23:32:26;13.20;72.54
76239;SHT30;65043;48.392;-4.472;2023-04-01T23:34:57;13.19;72.52
76239;SHT30;65043;48.392;-4.472;2023-04-01T23:37:23;13.22;72.49
76239;SHT30;65043;48.392;-4.472;2023-04-01T23:39:52;13.20;72.49
76239;SHT30;65043;48.392;-4.472;2023-04-01T23:44:48;13.22;72.57
76239;SHT30;65043;48.392;-4.472;2023-04-01T23:47:35;13.20;72.47
76239;SHT30;65043;48.392;-4.472;2023-04-01T23:50:11;13.22;72.58
76239;SHT30;65043;48.392;-4.472;2023-04-01T23:52:43;13.23;72.49
76239;SHT30;65043;48.392;-4.472;2023-04-01T23:55:19;13.22;72.29
